Etusivu
METAR-TAF:

METAR-TAF

Lentoasemat :

Maarianhamina, Suomi

Maarianhaminan lentoasema

Leveyspiiri: 60-07N, Pituuspiiri: 019-54E, korkeus merenpinnasta: 6 m

Tämänhetkinen sää

Tämä raportti tehtiin 16 minuuttia sitten, kello 06.20 UTC
Tuuli 5 kn luoteesta
Lämpötila 13°C
Kosteus 77%
Ilmanpaine 1011 hPa
Näkyvyys 10 km tai enemmän
ei pilviä alle 1500 m:ssä eikä cumulonimbus-pilviä

METAR: EFMA 240620Z 32005KT CAVOK 13/09 Q1011

Aika: 09:36 (06:36 UTC)

Sääennuste

Tämä raportti tehtiin 1 tunti ja 0 minuuttia sitten, kello 05.36 UTC
Ennuste voimassa 24. päivästä klo 06 UTC - 24. päivään klo 15 UTC
Tuuli 4 kn pohjoisesta
Näkyvyys 10 km tai enemmän
Muutamia pilviä 2000 ft:n korkeudessa
Todennäköisyys 30%
24. päivästä klo 12 UTC - 24. päivään klo 15 UTC
Tuuli 10 kn etelästä

TAF: EFMA 240536Z 2406/2415 35004KT 9999 FEW020 PROB30 2412/2415 18010KT

Säähavainnot ja -ennusteet yli 4000 lentoasemalta (METAR- ja TAF-raportit).

Käytössä olevat sääasemat on merkitty karttaan keltaisilla ja punaisilla pisteillä.

Aseta hiiri pisteen päälle nähdäksesi sääaseman nimen.

Klikkaa sitten nähdäksesi säähavainnot ja -ennusteet.

Kartan vaihtaminen: klikkaa mustalla rastilla varustettuja vihreitä pisteitä, niin voit zoomata sisään; viivalla varustettua vihreää pistettä, niin voit zoomata ulos tai vihreitä nuolia, niin pääset viereisille kartoille.


METAR-TAF: